Time;durP1;ratioP1;P1;durP2;ratioP2;P2;SDS_P1;SDS_P2;PMS_P1;PMS_P2;Temp;Humidity;BMP_temperature;BMP_pressure;BME280_temperature;BME280_humidity;BME280_pressure;Samples;Min_cycle;Max_cycle;Signal;HPM_P1;HPM_P2
2023/06/20 00:00:07;;;;;;;;;12.75;8.00;;;;;;;;119868;1189;25093;-64
2023/06/20 00:02:56;;;;;;;;;11.00;10.00;;;;;;;;119549;1192;25051;-64
2023/06/20 00:05:25;;;;;;;;;8.00;8.00;;;;;;;;119866;1192;24798;-64
2023/06/20 00:07:54;;;;;;;;;10.00;9.00;;;;;;;;119856;1192;25065;-63
2023/06/20 00:10:22;;;;;;;;;10.67;6.33;;;;;;;;119493;1192;25120;-64
2023/06/20 00:12:51;;;;;;;;;9.00;8.00;;;;;;;;119885;1192;25116;-63
2023/06/20 00:15:25;;;;;;;;;8.00;8.00;;;;;;;;119716;1192;24866;-64
2023/06/20 00:17:55;;;;;;;;;13.00;8.25;;;;;;;;119891;1192;25398;-64
2023/06/20 00:20:24;;;;;;;;;6.00;6.00;;;;;;;;119484;1192;25564;-64
2023/06/20 00:22:52;;;;;;;;;10.25;8.75;;;;;;;;119894;1180;25502;-64
2023/06/20 00:25:20;;;;;;;;;5.00;5.00;;;;;;;;119860;1192;25292;-64
2023/06/20 00:27:49;;;;;;;;;9.00;8.25;;;;;;;;119483;1192;24962;-64
2023/06/20 00:30:17;;;;;;;;;10.00;10.00;;;;;;;;119876;1183;24899;-64
2023/06/20 00:32:46;;;;;;;;;8.00;8.00;;;;;;;;119871;1192;24889;-64
2023/06/20 00:35:14;;;;;;;;;8.75;8.50;;;;;;;;119874;1192;25563;-65
2023/06/20 00:37:42;;;;;;;;;6.00;4.67;;;;;;;;119880;1184;24760;-64
2023/06/20 00:40:11;;;;;;;;;8.67;8.67;;;;;;;;119885;1192;25294;-63
2023/06/20 00:42:39;;;;;;;;;8.00;7.33;;;;;;;;119893;1192;24788;-64
2023/06/20 00:45:34;;;;;;;;;8.00;8.00;;;;;;;;119874;1183;25640;-64
2023/06/20 00:48:06;;;;;;;;;8.33;7.67;;;;;;;;119714;1192;25136;-64
2023/06/20 00:50:35;;;;;;;;;8.00;8.00;;;;;;;;119491;1192;25672;-64
2023/06/20 00:53:05;;;;;;;;;6.33;6.33;;;;;;;;119873;1184;25597;-64
2023/06/20 00:55:35;;;;;;;;;5.00;5.00;;;;;;;;119514;1192;24893;-64
2023/06/20 00:58:04;;;;;;;;;9.67;6.33;;;;;;;;119490;1185;25044;-64
2023/06/20 01:00:34;;;;;;;;;7.00;7.00;;;;;;;;119493;1185;25780;-63
2023/06/20 01:03:11;;;;;;;;;7.33;7.33;;;;;;;;119467;1186;24762;-63
2023/06/20 01:05:49;;;;;;;;;8.00;7.33;;;;;;;;119489;1192;24977;-63
2023/06/20 01:09:02;;;;;;;;;8.00;7.75;;;;;;;;119521;1186;25328;-62
2023/06/20 01:11:42;;;;;;;;;7.00;7.00;;;;;;;;119394;1180;25202;-63
2023/06/20 01:14:43;;;;;;;;;7.00;7.00;;;;;;;;119504;1184;25320;-63
2023/06/20 01:17:22;;;;;;;;;8.33;7.33;;;;;;;;119521;1185;25413;-64
2023/06/20 01:20:04;;;;;;;;;7.00;7.00;;;;;;;;119858;1192;25585;-64
2023/06/20 01:22:47;;;;;;;;;9.00;7.00;;;;;;;;119887;1192;24811;-63
2023/06/20 01:25:24;;;;;;;;;8.00;6.50;;;;;;;;119877;1192;24927;-64
2023/06/20 01:28:04;;;;;;;;;6.00;6.00;;;;;;;;119872;1184;25004;-64
2023/06/20 01:30:47;;;;;;;;;9.67;7.00;;;;;;;;119492;1192;24743;-64
2023/06/20 01:33:17;;;;;;;;;7.00;7.00;;;;;;;;119878;1192;25020;-63
2023/06/20 01:35:47;;;;;;;;;9.00;7.50;;;;;;;;119492;1192;24725;-64
2023/06/20 01:38:16;;;;;;;;;6.33;4.67;;;;;;;;119499;1180;25551;-64
2023/06/20 01:40:48;;;;;;;;;7.33;7.33;;;;;;;;119871;1192;25329;-64
2023/06/20 01:43:17;;;;;;;;;6.00;6.00;;;;;;;;119680;1192;25548;-64
2023/06/20 01:45:48;;;;;;;;;6.00;6.00;;;;;;;;119493;1185;25530;-64
2023/06/20 01:48:17;;;;;;;;;11.00;7.50;;;;;;;;119870;1184;25140;-63
2023/06/20 01:50:47;;;;;;;;;9.00;9.00;;;;;;;;119482;1192;25563;-63
2023/06/20 01:53:16;;;;;;;;;8.00;7.00;;;;;;;;119480;1192;26252;-63
2023/06/20 01:55:47;;;;;;;;;7.50;7.50;;;;;;;;119505;1193;25503;-63
2023/06/20 01:58:17;;;;;;;;;6.50;6.50;;;;;;;;119483;1192;25354;-63
2023/06/20 02:00:46;;;;;;;;;7.33;7.00;;;;;;;;119449;1192;24776;-63
2023/06/20 02:03:16;;;;;;;;;3.25;3.25;;;;;;;;119507;1189;25098;-63
2023/06/20 02:05:45;;;;;;;;;9.00;8.00;;;;;;;;119511;1185;24981;-63
2023/06/20 02:08:15;;;;;;;;;7.75;6.50;;;;;;;;119478;1184;25680;-62
2023/06/20 02:10:44;;;;;;;;;9.00;6.00;;;;;;;;119467;1192;25080;-63
2023/06/20 02:13:13;;;;;;;;;5.50;5.50;;;;;;;;119855;1192;25833;-63
2023/06/20 02:15:42;;;;;;;;;7.00;6.50;;;;;;;;119862;1192;25202;-64
2023/06/20 02:18:11;;;;;;;;;7.33;7.00;;;;;;;;119492;1192;25146;-63
2023/06/20 02:20:40;;;;;;;;;4.67;4.67;;;;;;;;119884;1192;25358;-63
2023/06/20 02:23:10;;;;;;;;;4.50;4.50;;;;;;;;119490;1192;25607;-63
2023/06/20 02:25:39;;;;;;;;;7.00;7.00;;;;;;;;119608;1189;24916;-63
2023/06/20 02:28:08;;;;;;;;;7.00;6.50;;;;;;;;119688;1186;25316;-64
2023/06/20 02:30:37;;;;;;;;;7.00;5.00;;;;;;;;119884;1192;25360;-64
2023/06/20 02:33:07;;;;;;;;;5.33;5.33;;;;;;;;119671;1189;24975;-63
2023/06/20 02:35:37;;;;;;;;;8.00;8.00;;;;;;;;119873;1188;25578;-64
2023/06/20 02:38:06;;;;;;;;;7.00;6.00;;;;;;;;119538;1192;25409;-62
2023/06/20 02:40:38;;;;;;;;;8.00;8.00;;;;;;;;119483;1184;25517;-63
2023/06/20 02:43:08;;;;;;;;;6.33;6.33;;;;;;;;119505;1192;24763;-63
2023/06/20 02:45:36;;;;;;;;;13.00;8.75;;;;;;;;119524;1188;25396;-64
2023/06/20 02:48:27;;;;;;;;;4.50;4.50;;;;;;;;119901;1183;24721;-64
2023/06/20 02:51:07;;;;;;;;;6.00;6.00;;;;;;;;119601;1192;25633;-63
2023/06/20 02:53:50;;;;;;;;;7.00;7.00;;;;;;;;119673;1189;25671;-63
2023/06/20 02:56:20;;;;;;;;;6.75;6.75;;;;;;;;119912;1183;24780;-64
2023/06/20 02:58:52;;;;;;;;;7.67;7.00;;;;;;;;119477;1192;25783;-64
2023/06/20 03:01:25;;;;;;;;;8.67;8.33;;;;;;;;119885;1188;25285;-64
2023/06/20 03:03:55;;;;;;;;;7.00;7.00;;;;;;;;119491;1192;25900;-64
2023/06/20 03:06:27;;;;;;;;;6.33;6.33;;;;;;;;119718;1192;25072;-63
2023/06/20 03:08:57;;;;;;;;;9.00;8.00;;;;;;;;119724;1192;25656;-64
2023/06/20 03:11:26;;;;;;;;;8.00;8.00;;;;;;;;119761;1185;25109;-64
2023/06/20 03:13:54;;;;;;;;;9.00;7.50;;;;;;;;119732;1192;25321;-64
2023/06/20 03:16:26;;;;;;;;;8.00;8.00;;;;;;;;119908;1192;25187;-63
2023/06/20 03:18:55;;;;;;;;;8.00;7.33;;;;;;;;119913;1183;25078;-63
2023/06/20 03:21:24;;;;;;;;;6.67;6.67;;;;;;;;119892;1192;25253;-63
2023/06/20 03:23:56;;;;;;;;;7.50;7.50;;;;;;;;119892;1192;25422;-64
2023/06/20 03:26:25;;;;;;;;;11.00;9.00;;;;;;;;119895;1192;25617;-64
2023/06/20 03:28:53;;;;;;;;;8.25;7.25;;;;;;;;119869;1192;26253;-64
2023/06/20 03:31:21;;;;;;;;;7.50;7.00;;;;;;;;119875;1188;24838;-64
2023/06/20 03:33:50;;;;;;;;;6.00;6.00;;;;;;;;119909;1183;24859;-63
2023/06/20 03:36:18;;;;;;;;;7.00;7.00;;;;;;;;119887;1192;25056;-63
2023/06/20 03:38:47;;;;;;;;;7.67;6.00;;;;;;;;119890;1192;25892;-63
2023/06/20 03:41:15;;;;;;;;;9.00;4.50;;;;;;;;119472;1192;25270;-63
2023/06/20 03:43:43;;;;;;;;;11.50;10.50;;;;;;;;119872;1192;25507;-63
2023/06/20 03:46:12;;;;;;;;;8.33;8.33;;;;;;;;119730;1192;25423;-63
2023/06/20 03:48:40;;;;;;;;;12.00;6.50;;;;;;;;119851;1183;24979;-63
2023/06/20 03:51:08;;;;;;;;;9.00;8.50;;;;;;;;119854;1189;25187;-63
2023/06/20 03:53:36;;;;;;;;;5.00;5.00;;;;;;;;119863;1192;24807;-65
2023/06/20 03:56:05;;;;;;;;;8.00;5.50;;;;;;;;119884;1183;24834;-63
2023/06/20 03:58:33;;;;;;;;;6.75;5.50;;;;;;;;119859;1192;25736;-63
2023/06/20 04:01:01;;;;;;;;;8.75;8.75;;;;;;;;119847;1192;24922;-63
2023/06/20 04:03:31;;;;;;;;;9.00;7.00;;;;;;;;119896;1183;25447;-63
2023/06/20 04:06:01;;;;;;;;;6.33;4.33;;;;;;;;119874;1192;25452;-63
2023/06/20 04:08:30;;;;;;;;;7.00;6.67;;;;;;;;119870;1192;25583;-63
2023/06/20 04:10:58;;;;;;;;;10.00;8.00;;;;;;;;119525;1192;25313;-63
2023/06/20 04:13:28;;;;;;;;;8.50;8.50;;;;;;;;119499;1192;25787;-63
2023/06/20 04:15:56;;;;;;;;;15.00;9.00;;;;;;;;119866;1192;25060;-63
2023/06/20 04:18:24;;;;;;;;;6.00;6.00;;;;;;;;119853;1192;25391;-65
2023/06/20 04:20:55;;;;;;;;;8.00;8.00;;;;;;;;119519;1193;24669;-63
2023/06/20 04:23:23;;;;;;;;;10.00;9.00;;;;;;;;119488;1192;24881;-62
2023/06/20 04:25:52;;;;;;;;;6.00;6.00;;;;;;;;119874;1192;25699;-62
2023/06/20 04:28:20;;;;;;;;;11.00;10.00;;;;;;;;119887;1192;25551;-62
2023/06/20 04:30:50;;;;;;;;;7.00;7.00;;;;;;;;119874;1192;24891;-64
2023/06/20 04:33:22;;;;;;;;;9.00;8.00;;;;;;;;119468;1192;25656;-61
2023/06/20 04:35:50;;;;;;;;;10.33;10.33;;;;;;;;119874;1192;25568;-66
2023/06/20 04:38:19;;;;;;;;;10.50;9.00;;;;;;;;119482;1192;25191;-65
2023/06/20 04:40:47;;;;;;;;;11.00;9.00;;;;;;;;119860;1183;25775;-66
2023/06/20 04:43:15;;;;;;;;;9.00;9.00;;;;;;;;119487;1192;24863;-65
2023/06/20 04:45:44;;;;;;;;;10.25;8.75;;;;;;;;119510;1192;25193;-65
2023/06/20 04:48:12;;;;;;;;;10.00;8.00;;;;;;;;119856;1183;24859;-65
2023/06/20 04:50:41;;;;;;;;;10.00;9.50;;;;;;;;119855;1192;25629;-65
2023/06/20 04:53:09;;;;;;;;;14.00;9.50;;;;;;;;119876;1192;25391;-65
2023/06/20 04:55:38;;;;;;;;;10.00;8.33;;;;;;;;119891;1192;25529;-65
2023/06/20 04:58:07;;;;;;;;;13.33;10.00;;;;;;;;119869;1180;25629;-65
2023/06/20 05:00:37;;;;;;;;;8.00;8.00;;;;;;;;119861;1192;24773;-65
2023/06/20 05:03:05;;;;;;;;;6.00;6.00;;;;;;;;119889;1192;25386;-65
2023/06/20 05:05:34;;;;;;;;;9.33;8.00;;;;;;;;119888;1192;24898;-65
2023/06/20 05:08:02;;;;;;;;;12.33;8.33;;;;;;;;119875;1184;25118;-65
2023/06/20 05:10:31;;;;;;;;;11.00;9.00;;;;;;;;119497;1192;25801;-65
2023/06/20 05:12:59;;;;;;;;;14.00;11.00;;;;;;;;119512;1185;25562;-66
2023/06/20 05:15:27;;;;;;;;;11.67;10.33;;;;;;;;119864;1192;25311;-65
2023/06/20 05:17:56;;;;;;;;;9.50;8.50;;;;;;;;119881;1192;25425;-65
2023/06/20 05:20:24;;;;;;;;;9.00;8.50;;;;;;;;119872;1192;25412;-66
2023/06/20 05:22:53;;;;;;;;;12.00;9.00;;;;;;;;119857;1192;25347;-65
2023/06/20 05:25:21;;;;;;;;;10.00;8.00;;;;;;;;119504;1186;25647;-65
2023/06/20 05:27:49;;;;;;;;;8.00;8.00;;;;;;;;119887;1192;25212;-66
2023/06/20 05:30:18;;;;;;;;;8.00;7.00;;;;;;;;119873;1192;24898;-65
2023/06/20 05:32:47;;;;;;;;;13.50;9.50;;;;;;;;119871;1192;25604;-66
2023/06/20 05:35:15;;;;;;;;;10.50;9.00;;;;;;;;119889;1188;24911;-66
2023/06/20 05:37:49;;;;;;;;;13.67;11.00;;;;;;;;119860;1192;25554;-65
2023/06/20 05:40:17;;;;;;;;;9.00;5.50;;;;;;;;119874;1192;25538;-65
2023/06/20 05:42:46;;;;;;;;;12.00;8.00;;;;;;;;119878;1184;25015;-65
2023/06/20 05:45:14;;;;;;;;;9.00;8.50;;;;;;;;119880;1192;25633;-66
2023/06/20 05:47:45;;;;;;;;;11.00;10.00;;;;;;;;119475;1192;25310;-65
2023/06/20 05:50:14;;;;;;;;;9.25;8.75;;;;;;;;119893;1192;25003;-65
2023/06/20 05:52:42;;;;;;;;;15.00;10.00;;;;;;;;119491;1192;25671;-65
2023/06/20 05:55:11;;;;;;;;;10.00;7.50;;;;;;;;119487;1192;25060;-65
2023/06/20 05:57:39;;;;;;;;;9.50;9.25;;;;;;;;119889;1192;25388;-65
2023/06/20 06:00:14;;;;;;;;;14.33;10.33;;;;;;;;119876;1192;25381;-65
2023/06/20 06:02:45;;;;;;;;;13.00;11.00;;;;;;;;119872;1192;25305;-65
2023/06/20 06:05:14;;;;;;;;;10.00;7.25;;;;;;;;119869;1192;25545;-65
2023/06/20 06:07:42;;;;;;;;;13.00;9.00;;;;;;;;119871;1184;25180;-65
2023/06/20 06:10:10;;;;;;;;;10.00;9.00;;;;;;;;119883;1192;25431;-65
2023/06/20 06:12:40;;;;;;;;;9.00;8.00;;;;;;;;119863;1192;25289;-65
2023/06/20 06:15:09;;;;;;;;;8.00;8.00;;;;;;;;119917;1192;25063;-66
2023/06/20 06:17:38;;;;;;;;;9.00;8.50;;;;;;;;119716;1192;25218;-65
2023/06/20 06:20:10;;;;;;;;;9.67;9.67;;;;;;;;119744;1186;25437;-65
2023/06/20 06:22:38;;;;;;;;;11.25;9.50;;;;;;;;119917;1183;25078;-65
2023/06/20 06:25:07;;;;;;;;;13.75;9.00;;;;;;;;119870;1192;25039;-66
2023/06/20 06:27:35;;;;;;;;;8.67;8.00;;;;;;;;119890;1192;25571;-67
2023/06/20 06:30:04;;;;;;;;;10.00;10.00;;;;;;;;119893;1192;24818;-66
2023/06/20 06:32:36;;;;;;;;;10.00;8.00;;;;;;;;119701;1192;25212;-66
2023/06/20 06:35:06;;;;;;;;;12.00;12.00;;;;;;;;119705;1192;24993;-65
2023/06/20 06:37:35;;;;;;;;;13.00;9.00;;;;;;;;119544;1192;25494;-65
2023/06/20 06:40:06;;;;;;;;;11.75;10.00;;;;;;;;119451;1192;25456;-65
2023/06/20 06:42:35;;;;;;;;;12.00;10.00;;;;;;;;119502;1192;25343;-66
2023/06/20 06:45:04;;;;;;;;;13.00;10.00;;;;;;;;119874;1184;25257;-65
2023/06/20 06:47:34;;;;;;;;;13.75;10.75;;;;;;;;119883;1183;24900;-66
2023/06/20 06:50:02;;;;;;;;;10.25;9.00;;;;;;;;119939;1180;25090;-65
2023/06/20 06:52:32;;;;;;;;;10.00;9.25;;;;;;;;119883;1192;25077;-65
2023/06/20 06:55:01;;;;;;;;;11.50;9.50;;;;;;;;119497;1192;25382;-65
2023/06/20 06:57:30;;;;;;;;;13.50;11.50;;;;;;;;119872;1192;25156;-66
2023/06/20 06:59:58;;;;;;;;;11.33;8.33;;;;;;;;119875;1192;25201;-66
2023/06/20 07:02:27;;;;;;;;;8.50;8.50;;;;;;;;119869;1192;25447;-64
2023/06/20 07:04:55;;;;;;;;;9.00;8.00;;;;;;;;119898;1184;25408;-66
2023/06/20 07:07:23;;;;;;;;;16.25;11.00;;;;;;;;119856;1192;25602;-66
2023/06/20 07:09:52;;;;;;;;;11.00;10.00;;;;;;;;119871;1188;25097;-65
2023/06/20 07:12:20;;;;;;;;;11.00;10.00;;;;;;;;119917;1184;25682;-65
2023/06/20 07:14:50;;;;;;;;;10.67;9.67;;;;;;;;119864;1192;24902;-66
2023/06/20 07:17:18;;;;;;;;;11.00;11.00;;;;;;;;119894;1188;25289;-66
2023/06/20 07:19:47;;;;;;;;;10.00;10.00;;;;;;;;119576;1192;25454;-66
2023/06/20 07:22:15;;;;;;;;;12.00;10.67;;;;;;;;119622;1186;25264;-66
2023/06/20 07:24:44;;;;;;;;;11.00;9.33;;;;;;;;119589;1189;24917;-66
2023/06/20 07:27:16;;;;;;;;;12.00;10.00;;;;;;;;119869;1188;25721;-66
2023/06/20 07:29:44;;;;;;;;;12.00;9.00;;;;;;;;119911;1183;25175;-66
2023/06/20 07:32:14;;;;;;;;;16.00;13.00;;;;;;;;119880;1192;25260;-63
2023/06/20 07:34:42;;;;;;;;;9.00;9.00;;;;;;;;119880;1183;24927;-63
2023/06/20 07:37:11;;;;;;;;;12.00;10.50;;;;;;;;119896;1192;24948;-62
2023/06/20 07:39:42;;;;;;;;;14.00;10.00;;;;;;;;119857;1192;25245;-62
2023/06/20 07:42:11;;;;;;;;;10.75;10.25;;;;;;;;119904;1188;25307;-61
2023/06/20 07:44:39;;;;;;;;;11.00;10.00;;;;;;;;119866;1192;25581;-62
2023/06/20 07:47:07;;;;;;;;;12.50;11.75;;;;;;;;119700;1186;25622;-62
2023/06/20 07:49:36;;;;;;;;;13.00;11.00;;;;;;;;119890;1192;24860;-61
2023/06/20 07:52:09;;;;;;;;;12.50;12.50;;;;;;;;119932;1188;25035;-61
2023/06/20 07:54:37;;;;;;;;;14.67;11.00;;;;;;;;119920;1183;25254;-61
2023/06/20 07:57:06;;;;;;;;;14.00;11.00;;;;;;;;119897;1192;25216;-63
2023/06/20 07:59:34;;;;;;;;;12.00;11.00;;;;;;;;119614;1186;26256;-63
2023/06/20 08:02:03;;;;;;;;;14.00;9.00;;;;;;;;119933;1188;25322;-63
2023/06/20 08:04:31;;;;;;;;;15.50;12.50;;;;;;;;119906;1188;25193;-62
2023/06/20 08:06:59;;;;;;;;;11.50;11.50;;;;;;;;119892;1183;24706;-61
2023/06/20 08:09:27;;;;;;;;;14.75;11.75;;;;;;;;119857;1183;25329;-61
2023/06/20 08:11:56;;;;;;;;;13.33;11.67;;;;;;;;119927;1188;25316;-61
2023/06/20 08:14:25;;;;;;;;;13.00;10.00;;;;;;;;119895;1188;25562;-61
2023/06/20 08:16:53;;;;;;;;;15.50;11.50;;;;;;;;119966;1179;24866;-61
2023/06/20 08:19:21;;;;;;;;;12.33;10.33;;;;;;;;119879;1192;25089;-61
2023/06/20 08:21:50;;;;;;;;;11.00;11.00;;;;;;;;119896;1192;25169;-61
2023/06/20 08:24:18;;;;;;;;;13.75;12.25;;;;;;;;119882;1188;25029;-61
2023/06/20 08:26:46;;;;;;;;;18.00;13.00;;;;;;;;119506;1192;25136;-61
2023/06/20 08:29:15;;;;;;;;;15.67;10.33;;;;;;;;119876;1192;24792;-60
2023/06/20 08:31:46;;;;;;;;;14.00;13.33;;;;;;;;119849;1192;25425;-60
2023/06/20 08:34:14;;;;;;;;;17.00;16.00;;;;;;;;119906;1183;24877;-60
2023/06/20 08:36:43;;;;;;;;;13.33;13.00;;;;;;;;119903;1183;24748;-61
2023/06/20 08:39:12;;;;;;;;;13.67;9.00;;;;;;;;119713;1192;25546;-61
2023/06/20 08:41:40;;;;;;;;;19.50;15.00;;;;;;;;119909;1192;25695;-61
2023/06/20 08:44:09;;;;;;;;;15.25;12.25;;;;;;;;119908;1183;24808;-61
2023/06/20 08:46:39;;;;;;;;;16.00;14.00;;;;;;;;119919;1191;25596;-61
2023/06/20 08:49:08;;;;;;;;;10.50;9.00;;;;;;;;119880;1192;25545;-61
2023/06/20 08:51:38;;;;;;;;;13.00;13.00;;;;;;;;119718;1184;24866;-61
2023/06/20 08:54:09;;;;;;;;;15.00;12.33;;;;;;;;119719;1192;24724;-61
2023/06/20 08:56:38;;;;;;;;;17.33;16.00;;;;;;;;119879;1192;24754;-61
2023/06/20 08:59:06;;;;;;;;;9.00;6.50;;;;;;;;119916;1192;25415;-61
2023/06/20 09:01:37;;;;;;;;;15.50;15.00;;;;;;;;119916;1192;25157;-61
2023/06/20 09:04:10;;;;;;;;;16.00;13.33;;;;;;;;119507;1190;25662;-61
2023/06/20 09:06:39;;;;;;;;;14.67;14.67;;;;;;;;119656;1186;25272;-61
2023/06/20 09:09:15;;;;;;;;;14.50;14.50;;;;;;;;119691;1189;25043;-61
2023/06/20 09:11:49;;;;;;;;;18.00;15.00;;;;;;;;119913;1187;24963;-61
2023/06/20 09:14:19;;;;;;;;;14.67;14.33;;;;;;;;119591;1192;25679;-61
2023/06/20 09:16:47;;;;;;;;;14.00;10.00;;;;;;;;119586;1192;25101;-61
2023/06/20 09:19:16;;;;;;;;;17.00;14.67;;;;;;;;119505;1190;26228;-61
2023/06/20 09:21:44;;;;;;;;;12.00;10.50;;;;;;;;119882;1192;24779;-61
2023/06/20 09:24:19;;;;;;;;;16.50;14.50;;;;;;;;119578;1185;25581;-61
2023/06/20 09:26:47;;;;;;;;;14.67;12.33;;;;;;;;119553;1190;24966;-61
2023/06/20 09:29:17;;;;;;;;;10.00;10.00;;;;;;;;119883;1183;24679;-61
2023/06/20 09:31:49;;;;;;;;;17.00;15.50;;;;;;;;119600;1192;24942;-61
2023/06/20 09:34:19;;;;;;;;;15.67;15.00;;;;;;;;119632;1184;25649;-62
2023/06/20 09:36:47;;;;;;;;;16.00;14.00;;;;;;;;119485;1192;25199;-62
2023/06/20 09:39:20;;;;;;;;;14.50;13.50;;;;;;;;119484;1192;25339;-63
2023/06/20 09:41:50;;;;;;;;;15.50;10.50;;;;;;;;119874;1192;25408;-61
2023/06/20 09:44:19;;;;;;;;;19.00;15.50;;;;;;;;119503;1192;25632;-61
2023/06/20 09:46:48;;;;;;;;;16.00;16.00;;;;;;;;119489;1192;25600;-61
2023/06/20 09:49:16;;;;;;;;;18.50;15.75;;;;;;;;119876;1192;25693;-62
2023/06/20 09:51:46;;;;;;;;;21.00;16.00;;;;;;;;119887;1183;25468;-62
2023/06/20 09:54:34;;;;;;;;;15.50;14.50;;;;;;;;119867;1188;25402;-61
2023/06/20 09:57:10;;;;;;;;;15.75;13.00;;;;;;;;119861;1192;24832;-62
2023/06/20 09:59:41;;;;;;;;;13.50;11.00;;;;;;;;119680;1188;25671;-61
2023/06/20 10:02:10;;;;;;;;;16.00;14.00;;;;;;;;119627;1192;25409;-62
2023/06/20 10:04:42;;;;;;;;;15.00;14.00;;;;;;;;119495;1192;25144;-62
2023/06/20 10:07:14;;;;;;;;;16.33;12.33;;;;;;;;119880;1183;25573;-62
2023/06/20 10:09:43;;;;;;;;;18.00;15.50;;;;;;;;119666;1189;25748;-61
2023/06/20 10:12:12;;;;;;;;;13.33;11.33;;;;;;;;119597;1190;24989;-61
2023/06/20 10:14:41;;;;;;;;;12.00;11.00;;;;;;;;119888;1189;24916;-61
2023/06/20 10:17:14;;;;;;;;;18.00;15.50;;;;;;;;119875;1189;25632;-61
2023/06/20 10:19:47;;;;;;;;;16.50;13.50;;;;;;;;119872;1188;25378;-61
2023/06/20 10:22:32;;;;;;;;;20.00;16.67;;;;;;;;119606;1185;25299;-61
2023/06/20 10:25:11;;;;;;;;;16.33;11.67;;;;;;;;119588;1189;25411;-61
2023/06/20 10:27:55;;;;;;;;;14.75;13.25;;;;;;;;119870;1184;25052;-61
2023/06/20 10:30:49;;;;;;;;;11.50;10.00;;;;;;;;119859;1192;25278;-61
2023/06/20 10:33:45;;;;;;;;;17.67;17.33;;;;;;;;119849;1187;24990;-62
2023/06/20 10:36:13;;;;;;;;;14.50;12.00;;;;;;;;119665;1189;25524;-61
2023/06/20 10:38:48;;;;;;;;;10.25;10.25;;;;;;;;119580;1192;25059;-62
2023/06/20 10:41:24;;;;;;;;;12.67;12.67;;;;;;;;119928;1183;24944;-61
2023/06/20 10:43:54;;;;;;;;;15.50;12.75;;;;;;;;119504;1188;25230;-61
2023/06/20 10:46:46;;;;;;;;;20.00;17.00;;;;;;;;119562;1186;25562;-61
2023/06/20 10:49:15;;;;;;;;;11.67;11.33;;;;;;;;119647;1188;25141;-62
2023/06/20 10:51:46;;;;;;;;;15.00;15.00;;;;;;;;119472;1192;25568;-61
2023/06/20 10:54:16;;;;;;;;;15.00;14.00;;;;;;;;119872;1189;25648;-62
2023/06/20 10:56:44;;;;;;;;;15.50;15.50;;;;;;;;119725;1188;24765;-61
2023/06/20 10:59:14;;;;;;;;;16.00;14.00;;;;;;;;119589;1192;24793;-61
2023/06/20 11:01:42;;;;;;;;;15.50;13.00;;;;;;;;119750;1189;24825;-61
2023/06/20 11:04:12;;;;;;;;;15.50;12.50;;;;;;;;119772;1189;24922;-62
2023/06/20 11:06:44;;;;;;;;;17.67;14.33;;;;;;;;119633;1185;25130;-60
2023/06/20 11:09:19;;;;;;;;;19.75;16.00;;;;;;;;119646;1188;25282;-61
2023/06/20 11:11:48;;;;;;;;;19.25;16.50;;;;;;;;119675;1186;24925;-61
2023/06/20 11:14:21;;;;;;;;;16.50;15.50;;;;;;;;119891;1183;25085;-62
2023/06/20 11:16:51;;;;;;;;;20.00;16.67;;;;;;;;119896;1183;25278;-61
2023/06/20 11:19:20;;;;;;;;;14.75;12.25;;;;;;;;119869;1180;24956;-62
2023/06/20 11:22:04;;;;;;;;;20.25;19.50;;;;;;;;119608;1192;25473;-62
2023/06/20 11:24:35;;;;;;;;;16.00;14.67;;;;;;;;119888;1192;25099;-60
2023/06/20 11:27:14;;;;;;;;;19.33;16.00;;;;;;;;119860;1192;25566;-59
2023/06/20 11:29:45;;;;;;;;;20.67;16.67;;;;;;;;119459;1188;25257;-61
2023/06/20 11:32:14;;;;;;;;;16.00;16.00;;;;;;;;119596;1189;24885;-61
2023/06/20 11:34:59;;;;;;;;;19.00;16.00;;;;;;;;119662;1189;24995;-61
2023/06/20 11:37:28;;;;;;;;;16.50;15.25;;;;;;;;119617;1183;24860;-61
2023/06/20 11:39:56;;;;;;;;;20.00;16.00;;;;;;;;119856;1192;25572;-61
2023/06/20 11:42:25;;;;;;;;;19.50;18.00;;;;;;;;119902;1183;25322;-61
2023/06/20 11:45:07;;;;;;;;;16.25;15.50;;;;;;;;119709;1185;24671;-61
2023/06/20 11:47:35;;;;;;;;;18.00;16.00;;;;;;;;119887;1192;24808;-62
2023/06/20 11:50:04;;;;;;;;;20.67;19.00;;;;;;;;119716;1188;25419;-61
2023/06/20 11:52:32;;;;;;;;;19.50;16.50;;;;;;;;119849;1192;25517;-60
2023/06/20 11:55:04;;;;;;;;;21.00;18.00;;;;;;;;119867;1183;25784;-60
2023/06/20 11:57:32;;;;;;;;;19.00;15.50;;;;;;;;119890;1192;24850;-60
2023/06/20 12:00:14;;;;;;;;;19.00;17.00;;;;;;;;119887;1183;25428;-60
2023/06/20 12:02:43;;;;;;;;;18.00;15.33;;;;;;;;119874;1183;25732;-60
2023/06/20 12:05:15;;;;;;;;;19.50;16.00;;;;;;;;119874;1192;25373;-61
2023/06/20 12:07:52;;;;;;;;;18.00;17.00;;;;;;;;119717;1192;25598;-61
2023/06/20 12:10:24;;;;;;;;;21.00;15.00;;;;;;;;119495;1192;25668;-62
2023/06/20 12:12:53;;;;;;;;;18.00;15.50;;;;;;;;119698;1186;24707;-60
2023/06/20 12:15:21;;;;;;;;;18.33;16.67;;;;;;;;119689;1192;25193;-61
2023/06/20 12:17:50;;;;;;;;;18.50;18.00;;;;;;;;119878;1192;24996;-61
2023/06/20 12:20:18;;;;;;;;;17.00;15.00;;;;;;;;119528;1192;25433;-61
2023/06/20 12:23:03;;;;;;;;;17.00;17.00;;;;;;;;119850;1188;25109;-61
2023/06/20 12:25:32;;;;;;;;;12.50;10.00;;;;;;;;119877;1192;25200;-62
2023/06/20 12:28:01;;;;;;;;;17.25;14.25;;;;;;;;119886;1183;25362;-61
2023/06/20 12:30:30;;;;;;;;;16.67;15.33;;;;;;;;119843;1192;25204;-61
2023/06/20 12:32:59;;;;;;;;;17.00;16.00;;;;;;;;119500;1192;25418;-62
2023/06/20 12:35:27;;;;;;;;;22.50;17.00;;;;;;;;119876;1192;25071;-60
2023/06/20 12:37:56;;;;;;;;;21.00;19.67;;;;;;;;119675;1189;24827;-61
2023/06/20 12:40:24;;;;;;;;;20.00;18.50;;;;;;;;119900;1183;25662;-60
2023/06/20 12:42:53;;;;;;;;;20.00;17.00;;;;;;;;119873;1183;25113;-61
2023/06/20 12:45:21;;;;;;;;;23.75;19.25;;;;;;;;119482;1192;25130;-61
2023/06/20 12:47:50;;;;;;;;;21.00;19.25;;;;;;;;119478;1192;24788;-63
2023/06/20 12:50:18;;;;;;;;;22.00;19.00;;;;;;;;119853;1184;25235;-61
2023/06/20 12:52:47;;;;;;;;;30.00;26.00;;;;;;;;119499;1192;25184;-61
2023/06/20 12:55:15;;;;;;;;;23.67;20.00;;;;;;;;119855;1179;24771;-61
2023/06/20 12:57:43;;;;;;;;;32.75;23.50;;;;;;;;119473;1189;24745;-61
2023/06/20 13:00:13;;;;;;;;;32.00;22.50;;;;;;;;119874;1183;25173;-61
2023/06/20 13:02:42;;;;;;;;;31.00;24.00;;;;;;;;119857;1192;25095;-62
2023/06/20 13:05:11;;;;;;;;;23.00;17.50;;;;;;;;119866;1192;25478;-61
2023/06/20 13:07:40;;;;;;;;;24.00;19.33;;;;;;;;119891;1192;24856;-62
2023/06/20 13:10:09;;;;;;;;;27.33;23.33;;;;;;;;119863;1192;25524;-62
2023/06/20 13:12:39;;;;;;;;;30.00;21.00;;;;;;;;119877;1192;25254;-61
2023/06/20 13:15:09;;;;;;;;;23.25;15.25;;;;;;;;119847;1192;25082;-61
2023/06/20 13:17:37;;;;;;;;;28.33;22.33;;;;;;;;119487;1192;25532;-61
2023/06/20 13:20:06;;;;;;;;;25.00;22.00;;;;;;;;119458;1192;25568;-61
2023/06/20 13:22:34;;;;;;;;;21.67;19.00;;;;;;;;119847;1192;25286;-61
2023/06/20 13:25:03;;;;;;;;;27.50;21.25;;;;;;;;119872;1192;24848;-61
2023/06/20 13:27:32;;;;;;;;;27.00;19.75;;;;;;;;119871;1192;24908;-61
2023/06/20 13:30:00;;;;;;;;;17.75;16.00;;;;;;;;119849;1192;25354;-61
2023/06/20 13:32:28;;;;;;;;;19.50;17.50;;;;;;;;119863;1192;25270;-61
2023/06/20 13:34:57;;;;;;;;;20.00;20.00;;;;;;;;119862;1189;25650;-60
2023/06/20 13:37:25;;;;;;;;;23.67;18.33;;;;;;;;119542;1185;24939;-59
2023/06/20 13:39:53;;;;;;;;;16.33;15.33;;;;;;;;119476;1184;25141;-62
2023/06/20 13:42:22;;;;;;;;;23.00;17.00;;;;;;;;119876;1192;25354;-60
2023/06/20 13:44:50;;;;;;;;;22.50;17.00;;;;;;;;119877;1192;24854;-61
2023/06/20 13:47:18;;;;;;;;;24.00;19.33;;;;;;;;119877;1192;25599;-60
2023/06/20 13:49:47;;;;;;;;;21.33;20.00;;;;;;;;119866;1192;24984;-60
2023/06/20 13:52:16;;;;;;;;;20.50;15.00;;;;;;;;119517;1192;25096;-60
2023/06/20 13:54:44;;;;;;;;;18.67;17.00;;;;;;;;119876;1184;25660;-61
2023/06/20 13:57:12;;;;;;;;;20.00;19.00;;;;;;;;119860;1192;25858;-61
2023/06/20 13:59:41;;;;;;;;;24.00;18.50;;;;;;;;119853;1192;25369;-62
2023/06/20 14:02:11;;;;;;;;;24.00;17.00;;;;;;;;119862;1192;24766;-61
2023/06/20 14:04:42;;;;;;;;;24.00;18.00;;;;;;;;119864;1183;24900;-63
2023/06/20 14:07:10;;;;;;;;;23.00;17.00;;;;;;;;119831;1183;25139;-62
2023/06/20 14:09:39;;;;;;;;;16.00;16.00;;;;;;;;119487;1192;24921;-62
2023/06/20 14:12:08;;;;;;;;;21.00;17.33;;;;;;;;119891;1183;25748;-62
2023/06/20 14:14:36;;;;;;;;;20.75;19.25;;;;;;;;119862;1192;25066;-61
2023/06/20 14:17:05;;;;;;;;;25.67;21.33;;;;;;;;119875;1192;25312;-62
2023/06/20 14:19:34;;;;;;;;;21.50;20.00;;;;;;;;119877;1183;25500;-61
2023/06/20 14:22:02;;;;;;;;;21.33;19.33;;;;;;;;119475;1192;25405;-61
2023/06/20 14:24:31;;;;;;;;;20.00;19.00;;;;;;;;119492;1193;25390;-62
2023/06/20 14:26:59;;;;;;;;;20.33;16.33;;;;;;;;119901;1183;25322;-62
2023/06/20 14:29:28;;;;;;;;;26.00;19.75;;;;;;;;119856;1192;25490;-62
2023/06/20 14:31:57;;;;;;;;;17.33;16.33;;;;;;;;119859;1192;25641;-63